sensor_id;sensor_type;location;lat;lon;timestamp;P1;durP1;ratioP1;P2;durP2;ratioP2
19151;SDS011;9708;53.114;9.388;2023-04-22T00:00:50;3.37;;;3.00;;
19151;SDS011;9708;53.114;9.388;2023-04-22T00:03:18;3.30;;;2.60;;
19151;SDS011;9708;53.114;9.388;2023-04-22T00:05:46;3.37;;;2.77;;
19151;SDS011;9708;53.114;9.388;2023-04-22T00:08:13;5.33;;;2.93;;
19151;SDS011;9708;53.114;9.388;2023-04-22T00:10:39;3.37;;;2.27;;
19151;SDS011;9708;53.114;9.388;2023-04-22T00:13:08;3.67;;;2.90;;
19151;SDS011;9708;53.114;9.388;2023-04-22T00:15:34;4.80;;;3.20;;
19151;SDS011;9708;53.114;9.388;2023-04-22T00:18:01;4.77;;;2.97;;
19151;SDS011;9708;53.114;9.388;2023-04-22T00:20:28;5.90;;;3.10;;
19151;SDS011;9708;53.114;9.388;2023-04-22T00:22:56;5.37;;;2.60;;
19151;SDS011;9708;53.114;9.388;2023-04-22T00:25:23;2.97;;;2.57;;
19151;SDS011;9708;53.114;9.388;2023-04-22T00:27:50;3.43;;;2.73;;
19151;SDS011;9708;53.114;9.388;2023-04-22T00:30:18;2.53;;;2.33;;
19151;SDS011;9708;53.114;9.388;2023-04-22T00:32:45;4.67;;;2.93;;
19151;SDS011;9708;53.114;9.388;2023-04-22T00:35:13;3.77;;;3.33;;
19151;SDS011;9708;53.114;9.388;2023-04-22T00:37:39;3.63;;;2.90;;
19151;SDS011;9708;53.114;9.388;2023-04-22T00:40:07;4.30;;;2.80;;
19151;SDS011;9708;53.114;9.388;2023-04-22T00:42:35;3.73;;;2.73;;
19151;SDS011;9708;53.114;9.388;2023-04-22T00:45:02;4.33;;;2.83;;
19151;SDS011;9708;53.114;9.388;2023-04-22T00:47:31;4.77;;;3.20;;
19151;SDS011;9708;53.114;9.388;2023-04-22T00:49:58;3.23;;;2.77;;
19151;SDS011;9708;53.114;9.388;2023-04-22T00:52:25;3.00;;;2.53;;
19151;SDS011;9708;53.114;9.388;2023-04-22T00:54:52;5.13;;;3.10;;
19151;SDS011;9708;53.114;9.388;2023-04-22T00:57:19;5.27;;;3.10;;
19151;SDS011;9708;53.114;9.388;2023-04-22T00:59:46;6.67;;;2.70;;
19151;SDS011;9708;53.114;9.388;2023-04-22T01:02:13;4.17;;;3.20;;
19151;SDS011;9708;53.114;9.388;2023-04-22T01:04:42;5.17;;;3.40;;
19151;SDS011;9708;53.114;9.388;2023-04-22T01:07:09;4.40;;;3.50;;
19151;SDS011;9708;53.114;9.388;2023-04-22T01:09:36;4.63;;;3.37;;
19151;SDS011;9708;53.114;9.388;2023-04-22T01:12:04;4.90;;;2.87;;
19151;SDS011;9708;53.114;9.388;2023-04-22T01:14:31;5.37;;;3.10;;
19151;SDS011;9708;53.114;9.388;2023-04-22T01:16:58;4.60;;;2.80;;
19151;SDS011;9708;53.114;9.388;2023-04-22T01:19:25;6.77;;;3.53;;
19151;SDS011;9708;53.114;9.388;2023-04-22T01:21:55;4.50;;;2.93;;
19151;SDS011;9708;53.114;9.388;2023-04-22T01:24:23;4.00;;;2.80;;
19151;SDS011;9708;53.114;9.388;2023-04-22T01:26:51;3.73;;;3.03;;
19151;SDS011;9708;53.114;9.388;2023-04-22T01:29:17;5.37;;;3.53;;
19151;SDS011;9708;53.114;9.388;2023-04-22T01:31:45;3.57;;;2.83;;
19151;SDS011;9708;53.114;9.388;2023-04-22T01:34:12;3.93;;;3.53;;
19151;SDS011;9708;53.114;9.388;2023-04-22T01:36:39;4.70;;;3.33;;
19151;SDS011;9708;53.114;9.388;2023-04-22T01:39:06;5.90;;;3.10;;
19151;SDS011;9708;53.114;9.388;2023-04-22T01:41:34;5.30;;;3.13;;
19151;SDS011;9708;53.114;9.388;2023-04-22T01:44:02;5.27;;;3.23;;
19151;SDS011;9708;53.114;9.388;2023-04-22T01:46:29;5.53;;;3.70;;
19151;SDS011;9708;53.114;9.388;2023-04-22T01:48:56;3.87;;;3.10;;
19151;SDS011;9708;53.114;9.388;2023-04-22T01:51:23;7.33;;;4.07;;
19151;SDS011;9708;53.114;9.388;2023-04-22T01:53:49;4.33;;;3.07;;
19151;SDS011;9708;53.114;9.388;2023-04-22T01:56:16;4.87;;;3.43;;
19151;SDS011;9708;53.114;9.388;2023-04-22T01:58:45;2.90;;;2.70;;
19151;SDS011;9708;53.114;9.388;2023-04-22T02:01:12;6.77;;;3.43;;
19151;SDS011;9708;53.114;9.388;2023-04-22T02:03:39;4.60;;;3.50;;
19151;SDS011;9708;53.114;9.388;2023-04-22T02:06:06;6.33;;;2.83;;
19151;SDS011;9708;53.114;9.388;2023-04-22T02:08:32;5.20;;;3.63;;
19151;SDS011;9708;53.114;9.388;2023-04-22T02:10:59;3.47;;;3.17;;
19151;SDS011;9708;53.114;9.388;2023-04-22T02:13:33;4.00;;;3.60;;
19151;SDS011;9708;53.114;9.388;2023-04-22T02:16:01;7.10;;;3.60;;
19151;SDS011;9708;53.114;9.388;2023-04-22T02:18:29;4.10;;;3.17;;
19151;SDS011;9708;53.114;9.388;2023-04-22T02:20:56;4.90;;;3.23;;
19151;SDS011;9708;53.114;9.388;2023-04-22T02:23:22;3.73;;;3.33;;
19151;SDS011;9708;53.114;9.388;2023-04-22T02:25:50;4.47;;;3.07;;
19151;SDS011;9708;53.114;9.388;2023-04-22T02:28:17;9.07;;;3.73;;
19151;SDS011;9708;53.114;9.388;2023-04-22T02:30:44;3.47;;;2.87;;
19151;SDS011;9708;53.114;9.388;2023-04-22T02:33:12;5.63;;;3.67;;
19151;SDS011;9708;53.114;9.388;2023-04-22T02:35:39;7.33;;;3.20;;
19151;SDS011;9708;53.114;9.388;2023-04-22T02:38:06;4.73;;;4.10;;
19151;SDS011;9708;53.114;9.388;2023-04-22T02:40:33;4.50;;;3.30;;
19151;SDS011;9708;53.114;9.388;2023-04-22T02:43:00;5.23;;;3.10;;
19151;SDS011;9708;53.114;9.388;2023-04-22T02:45:27;7.50;;;3.57;;
19151;SDS011;9708;53.114;9.388;2023-04-22T02:47:54;3.90;;;3.47;;
19151;SDS011;9708;53.114;9.388;2023-04-22T02:50:22;5.07;;;3.30;;
19151;SDS011;9708;53.114;9.388;2023-04-22T02:52:49;6.10;;;4.10;;
19151;SDS011;9708;53.114;9.388;2023-04-22T02:55:16;4.00;;;3.27;;
19151;SDS011;9708;53.114;9.388;2023-04-22T02:57:43;6.13;;;3.43;;
19151;SDS011;9708;53.114;9.388;2023-04-22T03:00:10;7.23;;;4.17;;
19151;SDS011;9708;53.114;9.388;2023-04-22T03:02:37;4.90;;;4.00;;
19151;SDS011;9708;53.114;9.388;2023-04-22T03:05:04;4.93;;;3.60;;
19151;SDS011;9708;53.114;9.388;2023-04-22T03:07:33;4.87;;;3.47;;
19151;SDS011;9708;53.114;9.388;2023-04-22T03:09:59;5.43;;;3.67;;
19151;SDS011;9708;53.114;9.388;2023-04-22T03:12:26;4.40;;;3.43;;
19151;SDS011;9708;53.114;9.388;2023-04-22T03:14:53;6.17;;;4.07;;
19151;SDS011;9708;53.114;9.388;2023-04-22T03:17:20;4.80;;;3.43;;
19151;SDS011;9708;53.114;9.388;2023-04-22T03:19:47;5.17;;;3.90;;
19151;SDS011;9708;53.114;9.388;2023-04-22T03:22:14;4.97;;;3.77;;
19151;SDS011;9708;53.114;9.388;2023-04-22T03:24:42;4.87;;;3.80;;
19151;SDS011;9708;53.114;9.388;2023-04-22T03:27:09;5.77;;;3.80;;
19151;SDS011;9708;53.114;9.388;2023-04-22T03:29:36;3.90;;;3.50;;
19151;SDS011;9708;53.114;9.388;2023-04-22T03:32:02;6.17;;;3.43;;
19151;SDS011;9708;53.114;9.388;2023-04-22T03:34:29;7.00;;;4.13;;
19151;SDS011;9708;53.114;9.388;2023-04-22T03:36:56;3.80;;;3.40;;
19151;SDS011;9708;53.114;9.388;2023-04-22T03:39:23;4.43;;;3.50;;
19151;SDS011;9708;53.114;9.388;2023-04-22T03:41:51;8.83;;;4.70;;
19151;SDS011;9708;53.114;9.388;2023-04-22T03:44:18;5.03;;;3.60;;
19151;SDS011;9708;53.114;9.388;2023-04-22T03:46:45;6.70;;;4.27;;
19151;SDS011;9708;53.114;9.388;2023-04-22T03:49:11;10.17;;;4.60;;
19151;SDS011;9708;53.114;9.388;2023-04-22T03:51:38;5.53;;;4.07;;
19151;SDS011;9708;53.114;9.388;2023-04-22T03:54:05;7.27;;;5.00;;
19151;SDS011;9708;53.114;9.388;2023-04-22T03:56:32;7.30;;;3.77;;
19151;SDS011;9708;53.114;9.388;2023-04-22T03:59:00;5.27;;;3.70;;
19151;SDS011;9708;53.114;9.388;2023-04-22T04:01:27;6.57;;;4.10;;
19151;SDS011;9708;53.114;9.388;2023-04-22T04:03:54;5.73;;;4.30;;
19151;SDS011;9708;53.114;9.388;2023-04-22T04:06:20;5.27;;;4.07;;
19151;SDS011;9708;53.114;9.388;2023-04-22T04:08:47;3.83;;;3.23;;
19151;SDS011;9708;53.114;9.388;2023-04-22T04:11:14;6.83;;;3.70;;
19151;SDS011;9708;53.114;9.388;2023-04-22T04:13:41;4.93;;;4.40;;
19151;SDS011;9708;53.114;9.388;2023-04-22T04:16:09;6.07;;;4.10;;
19151;SDS011;9708;53.114;9.388;2023-04-22T04:18:37;6.30;;;3.83;;
19151;SDS011;9708;53.114;9.388;2023-04-22T04:21:04;4.30;;;3.90;;
19151;SDS011;9708;53.114;9.388;2023-04-22T04:23:31;6.37;;;4.20;;
19151;SDS011;9708;53.114;9.388;2023-04-22T04:25:58;5.83;;;4.57;;
19151;SDS011;9708;53.114;9.388;2023-04-22T04:28:26;6.30;;;4.30;;
19151;SDS011;9708;53.114;9.388;2023-04-22T04:30:56;5.13;;;3.40;;
19151;SDS011;9708;53.114;9.388;2023-04-22T04:33:24;6.33;;;4.33;;
19151;SDS011;9708;53.114;9.388;2023-04-22T04:35:52;5.60;;;4.23;;
19151;SDS011;9708;53.114;9.388;2023-04-22T04:38:19;4.83;;;3.90;;
19151;SDS011;9708;53.114;9.388;2023-04-22T04:40:47;6.73;;;4.13;;
19151;SDS011;9708;53.114;9.388;2023-04-22T04:43:16;5.83;;;4.23;;
19151;SDS011;9708;53.114;9.388;2023-04-22T04:45:43;7.00;;;5.10;;
19151;SDS011;9708;53.114;9.388;2023-04-22T04:48:11;8.00;;;4.53;;
19151;SDS011;9708;53.114;9.388;2023-04-22T04:50:39;8.37;;;4.40;;
19151;SDS011;9708;53.114;9.388;2023-04-22T04:53:07;5.00;;;4.37;;
19151;SDS011;9708;53.114;9.388;2023-04-22T04:55:34;6.57;;;4.60;;
19151;SDS011;9708;53.114;9.388;2023-04-22T04:58:01;4.47;;;3.80;;
19151;SDS011;9708;53.114;9.388;2023-04-22T05:00:28;7.43;;;4.97;;
19151;SDS011;9708;53.114;9.388;2023-04-22T05:02:55;7.33;;;4.87;;
19151;SDS011;9708;53.114;9.388;2023-04-22T05:05:22;10.33;;;5.10;;
19151;SDS011;9708;53.114;9.388;2023-04-22T05:07:50;5.57;;;4.87;;
19151;SDS011;9708;53.114;9.388;2023-04-22T05:10:18;5.33;;;3.83;;
19151;SDS011;9708;53.114;9.388;2023-04-22T05:12:45;4.63;;;4.20;;
19151;SDS011;9708;53.114;9.388;2023-04-22T05:15:12;9.93;;;4.65;;
19151;SDS011;9708;53.114;9.388;2023-04-22T05:17:39;7.53;;;5.03;;
19151;SDS011;9708;53.114;9.388;2023-04-22T05:20:06;6.85;;;4.13;;
19151;SDS011;9708;53.114;9.388;2023-04-22T05:22:34;6.47;;;4.05;;
19151;SDS011;9708;53.114;9.388;2023-04-22T05:25:03;6.97;;;4.25;;
19151;SDS011;9708;53.114;9.388;2023-04-22T05:27:30;7.70;;;4.93;;
19151;SDS011;9708;53.114;9.388;2023-04-22T05:29:57;5.03;;;4.05;;
19151;SDS011;9708;53.114;9.388;2023-04-22T05:32:24;8.93;;;4.85;;
19151;SDS011;9708;53.114;9.388;2023-04-22T05:34:50;6.25;;;4.82;;
19151;SDS011;9708;53.114;9.388;2023-04-22T05:37:17;8.77;;;4.82;;
19151;SDS011;9708;53.114;9.388;2023-04-22T05:39:44;5.53;;;3.97;;
19151;SDS011;9708;53.114;9.388;2023-04-22T05:42:13;6.18;;;4.38;;
19151;SDS011;9708;53.114;9.388;2023-04-22T05:44:39;8.18;;;4.82;;
19151;SDS011;9708;53.114;9.388;2023-04-22T05:47:06;4.55;;;4.15;;
19151;SDS011;9708;53.114;9.388;2023-04-22T05:49:33;7.38;;;4.40;;
19151;SDS011;9708;53.114;9.388;2023-04-22T05:52:00;8.25;;;4.75;;
19151;SDS011;9708;53.114;9.388;2023-04-22T05:54:27;7.15;;;4.45;;
19151;SDS011;9708;53.114;9.388;2023-04-22T05:56:54;8.38;;;4.55;;
19151;SDS011;9708;53.114;9.388;2023-04-22T05:59:22;4.55;;;4.13;;
19151;SDS011;9708;53.114;9.388;2023-04-22T06:01:49;11.77;;;5.80;;
19151;SDS011;9708;53.114;9.388;2023-04-22T06:04:17;6.60;;;4.60;;
19151;SDS011;9708;53.114;9.388;2023-04-22T06:06:44;4.43;;;4.00;;
19151;SDS011;9708;53.114;9.388;2023-04-22T06:09:11;9.15;;;5.05;;
19151;SDS011;9708;53.114;9.388;2023-04-22T06:11:38;6.05;;;4.55;;
19151;SDS011;9708;53.114;9.388;2023-04-22T06:14:05;5.43;;;4.35;;
19151;SDS011;9708;53.114;9.388;2023-04-22T06:16:34;6.15;;;4.43;;
19151;SDS011;9708;53.114;9.388;2023-04-22T06:19:00;7.22;;;4.22;;
19151;SDS011;9708;53.114;9.388;2023-04-22T06:21:27;6.25;;;4.05;;
19151;SDS011;9708;53.114;9.388;2023-04-22T06:23:56;8.20;;;4.25;;
19151;SDS011;9708;53.114;9.388;2023-04-22T06:26:23;5.78;;;4.00;;
19151;SDS011;9708;53.114;9.388;2023-04-22T06:28:50;8.68;;;4.35;;
19151;SDS011;9708;53.114;9.388;2023-04-22T06:31:17;6.53;;;4.30;;
19151;SDS011;9708;53.114;9.388;2023-04-22T06:33:45;6.00;;;3.90;;
19151;SDS011;9708;53.114;9.388;2023-04-22T06:36:12;6.28;;;4.20;;
19151;SDS011;9708;53.114;9.388;2023-04-22T06:38:39;5.35;;;3.85;;
19151;SDS011;9708;53.114;9.388;2023-04-22T06:41:06;5.47;;;3.70;;
19151;SDS011;9708;53.114;9.388;2023-04-22T06:43:33;5.05;;;4.18;;
19151;SDS011;9708;53.114;9.388;2023-04-22T06:45:59;6.93;;;3.83;;
19151;SDS011;9708;53.114;9.388;2023-04-22T06:48:26;3.35;;;3.05;;
19151;SDS011;9708;53.114;9.388;2023-04-22T06:50:54;5.25;;;3.40;;
19151;SDS011;9708;53.114;9.388;2023-04-22T06:53:22;4.28;;;3.63;;
19151;SDS011;9708;53.114;9.388;2023-04-22T06:55:48;4.40;;;3.63;;
19151;SDS011;9708;53.114;9.388;2023-04-22T06:58:15;4.90;;;3.50;;
19151;SDS011;9708;53.114;9.388;2023-04-22T07:00:42;4.20;;;3.50;;
19151;SDS011;9708;53.114;9.388;2023-04-22T07:03:09;4.50;;;3.03;;
19151;SDS011;9708;53.114;9.388;2023-04-22T07:05:35;5.25;;;3.70;;
19151;SDS011;9708;53.114;9.388;2023-04-22T07:08:04;5.18;;;3.03;;
19151;SDS011;9708;53.114;9.388;2023-04-22T07:10:30;3.53;;;3.22;;
19151;SDS011;9708;53.114;9.388;2023-04-22T07:12:57;4.70;;;3.03;;
19151;SDS011;9708;53.114;9.388;2023-04-22T07:15:24;3.60;;;2.90;;
19151;SDS011;9708;53.114;9.388;2023-04-22T07:17:51;3.90;;;3.08;;
19151;SDS011;9708;53.114;9.388;2023-04-22T07:20:18;4.30;;;3.20;;
19151;SDS011;9708;53.114;9.388;2023-04-22T07:22:44;4.75;;;3.10;;
19151;SDS011;9708;53.114;9.388;2023-04-22T07:25:12;3.85;;;3.30;;
19151;SDS011;9708;53.114;9.388;2023-04-22T07:27:39;5.68;;;3.53;;
19151;SDS011;9708;53.114;9.388;2023-04-22T07:30:06;7.93;;;4.18;;
19151;SDS011;9708;53.114;9.388;2023-04-22T07:32:34;2.75;;;2.55;;
19151;SDS011;9708;53.114;9.388;2023-04-22T07:35:01;3.78;;;2.75;;
19151;SDS011;9708;53.114;9.388;2023-04-22T07:37:28;4.50;;;3.50;;
19151;SDS011;9708;53.114;9.388;2023-04-22T07:39:54;4.03;;;2.97;;
19151;SDS011;9708;53.114;9.388;2023-04-22T07:42:23;4.60;;;3.22;;
19151;SDS011;9708;53.114;9.388;2023-04-22T07:44:49;3.40;;;2.78;;
19151;SDS011;9708;53.114;9.388;2023-04-22T07:47:16;4.05;;;3.15;;
19151;SDS011;9708;53.114;9.388;2023-04-22T07:49:43;7.50;;;3.30;;
19151;SDS011;9708;53.114;9.388;2023-04-22T07:52:10;6.72;;;3.25;;
19151;SDS011;9708;53.114;9.388;2023-04-22T07:54:37;4.28;;;2.97;;
19151;SDS011;9708;53.114;9.388;2023-04-22T07:57:03;6.53;;;4.35;;
19151;SDS011;9708;53.114;9.388;2023-04-22T07:59:32;3.25;;;2.67;;
19151;SDS011;9708;53.114;9.388;2023-04-22T08:01:58;5.28;;;2.70;;
19151;SDS011;9708;53.114;9.388;2023-04-22T08:04:25;3.05;;;2.75;;
19151;SDS011;9708;53.114;9.388;2023-04-22T08:06:52;2.92;;;2.53;;
19151;SDS011;9708;53.114;9.388;2023-04-22T08:09:21;3.38;;;2.50;;
19151;SDS011;9708;53.114;9.388;2023-04-22T08:11:48;6.32;;;2.97;;
19151;SDS011;9708;53.114;9.388;2023-04-22T08:14:17;2.38;;;2.13;;
19151;SDS011;9708;53.114;9.388;2023-04-22T08:16:45;6.82;;;2.50;;
19151;SDS011;9708;53.114;9.388;2023-04-22T08:19:12;5.22;;;2.72;;
19151;SDS011;9708;53.114;9.388;2023-04-22T08:21:39;5.03;;;2.20;;
19151;SDS011;9708;53.114;9.388;2023-04-22T08:24:06;3.28;;;2.58;;
19151;SDS011;9708;53.114;9.388;2023-04-22T08:26:32;2.70;;;2.20;;
19151;SDS011;9708;53.114;9.388;2023-04-22T08:29:01;4.88;;;2.20;;
19151;SDS011;9708;53.114;9.388;2023-04-22T08:31:28;6.78;;;3.80;;
19151;SDS011;9708;53.114;9.388;2023-04-22T08:33:56;6.32;;;3.58;;
19151;SDS011;9708;53.114;9.388;2023-04-22T08:36:23;2.35;;;1.95;;
19151;SDS011;9708;53.114;9.388;2023-04-22T08:38:51;3.15;;;2.25;;
19151;SDS011;9708;53.114;9.388;2023-04-22T08:41:18;3.28;;;2.30;;
19151;SDS011;9708;53.114;9.388;2023-04-22T08:43:48;2.15;;;1.90;;
19151;SDS011;9708;53.114;9.388;2023-04-22T08:46:15;4.40;;;2.08;;
19151;SDS011;9708;53.114;9.388;2023-04-22T08:48:44;3.05;;;2.47;;
19151;SDS011;9708;53.114;9.388;2023-04-22T08:51:14;2.72;;;2.13;;
19151;SDS011;9708;53.114;9.388;2023-04-22T08:53:42;2.63;;;2.17;;
19151;SDS011;9708;53.114;9.388;2023-04-22T08:56:09;4.32;;;2.55;;
19151;SDS011;9708;53.114;9.388;2023-04-22T08:58:36;3.25;;;2.20;;
19151;SDS011;9708;53.114;9.388;2023-04-22T09:01:04;2.38;;;2.05;;
19151;SDS011;9708;53.114;9.388;2023-04-22T09:03:32;2.00;;;1.80;;
19151;SDS011;9708;53.114;9.388;2023-04-22T09:06:00;1.73;;;1.60;;
19151;SDS011;9708;53.114;9.388;2023-04-22T09:08:31;2.85;;;2.35;;
19151;SDS011;9708;53.114;9.388;2023-04-22T09:10:58;4.30;;;2.35;;
19151;SDS011;9708;53.114;9.388;2023-04-22T09:13:25;2.30;;;1.90;;
19151;SDS011;9708;53.114;9.388;2023-04-22T09:15:52;2.25;;;2.03;;
19151;SDS011;9708;53.114;9.388;2023-04-22T09:18:19;3.78;;;1.90;;
19151;SDS011;9708;53.114;9.388;2023-04-22T09:20:46;2.10;;;1.80;;
19151;SDS011;9708;53.114;9.388;2023-04-22T09:23:14;1.80;;;1.70;;
19151;SDS011;9708;53.114;9.388;2023-04-22T09:25:43;3.05;;;2.15;;
19151;SDS011;9708;53.114;9.388;2023-04-22T09:28:12;4.65;;;1.77;;
19151;SDS011;9708;53.114;9.388;2023-04-22T09:30:43;4.10;;;2.10;;
19151;SDS011;9708;53.114;9.388;2023-04-22T09:33:11;2.22;;;2.10;;
19151;SDS011;9708;53.114;9.388;2023-04-22T09:35:40;2.55;;;2.35;;
19151;SDS011;9708;53.114;9.388;2023-04-22T09:38:07;2.40;;;2.22;;
19151;SDS011;9708;53.114;9.388;2023-04-22T09:40:36;1.80;;;1.55;;
19151;SDS011;9708;53.114;9.388;2023-04-22T09:43:07;4.18;;;2.08;;
19151;SDS011;9708;53.114;9.388;2023-04-22T09:45:35;2.60;;;1.92;;
19151;SDS011;9708;53.114;9.388;2023-04-22T09:48:05;3.00;;;1.65;;
19151;SDS011;9708;53.114;9.388;2023-04-22T09:50:33;1.98;;;1.77;;
19151;SDS011;9708;53.114;9.388;2023-04-22T09:53:01;1.30;;;1.20;;
19151;SDS011;9708;53.114;9.388;2023-04-22T09:55:30;3.10;;;1.90;;
19151;SDS011;9708;53.114;9.388;2023-04-22T09:58:03;2.38;;;1.80;;
19151;SDS011;9708;53.114;9.388;2023-04-22T10:00:36;1.77;;;1.63;;
19151;SDS011;9708;53.114;9.388;2023-04-22T10:03:05;2.15;;;1.52;;
19151;SDS011;9708;53.114;9.388;2023-04-22T10:05:32;2.03;;;1.65;;
19151;SDS011;9708;53.114;9.388;2023-04-22T10:08:02;4.75;;;1.70;;
19151;SDS011;9708;53.114;9.388;2023-04-22T10:10:29;1.85;;;1.75;;
19151;SDS011;9708;53.114;9.388;2023-04-22T10:12:56;2.15;;;1.60;;
19151;SDS011;9708;53.114;9.388;2023-04-22T10:15:22;2.88;;;1.90;;
19151;SDS011;9708;53.114;9.388;2023-04-22T10:17:52;1.73;;;1.63;;
19151;SDS011;9708;53.114;9.388;2023-04-22T10:20:20;2.55;;;2.10;;
19151;SDS011;9708;53.114;9.388;2023-04-22T10:22:49;2.00;;;1.80;;
19151;SDS011;9708;53.114;9.388;2023-04-22T10:25:20;2.17;;;1.98;;
19151;SDS011;9708;53.114;9.388;2023-04-22T10:27:51;3.08;;;2.00;;
19151;SDS011;9708;53.114;9.388;2023-04-22T10:30:25;1.65;;;1.55;;
19151;SDS011;9708;53.114;9.388;2023-04-22T10:32:54;2.20;;;2.00;;
19151;SDS011;9708;53.114;9.388;2023-04-22T10:35:25;2.03;;;1.77;;
19151;SDS011;9708;53.114;9.388;2023-04-22T10:37:53;1.80;;;1.70;;
19151;SDS011;9708;53.114;9.388;2023-04-22T10:40:20;3.40;;;1.40;;
19151;SDS011;9708;53.114;9.388;2023-04-22T10:42:48;2.75;;;1.75;;
19151;SDS011;9708;53.114;9.388;2023-04-22T10:45:16;1.40;;;1.30;;
19151;SDS011;9708;53.114;9.388;2023-04-22T10:47:44;3.63;;;1.60;;
19151;SDS011;9708;53.114;9.388;2023-04-22T10:50:17;1.52;;;1.40;;
19151;SDS011;9708;53.114;9.388;2023-04-22T10:52:47;2.60;;;1.85;;
19151;SDS011;9708;53.114;9.388;2023-04-22T10:55:16;3.00;;;1.60;;
19151;SDS011;9708;53.114;9.388;2023-04-22T10:57:44;1.85;;;1.33;;
19151;SDS011;9708;53.114;9.388;2023-04-22T11:00:25;1.65;;;1.55;;
19151;SDS011;9708;53.114;9.388;2023-04-22T11:03:05;1.70;;;1.40;;
19151;SDS011;9708;53.114;9.388;2023-04-22T11:05:36;2.38;;;1.50;;
19151;SDS011;9708;53.114;9.388;2023-04-22T11:08:04;2.15;;;1.52;;
19151;SDS011;9708;53.114;9.388;2023-04-22T11:10:33;1.73;;;1.63;;
19151;SDS011;9708;53.114;9.388;2023-04-22T11:13:08;2.30;;;1.30;;
19151;SDS011;9708;53.114;9.388;2023-04-22T11:15:38;3.15;;;1.27;;
19151;SDS011;9708;53.114;9.388;2023-04-22T11:18:07;1.50;;;1.40;;
19151;SDS011;9708;53.114;9.388;2023-04-22T11:20:40;1.70;;;1.60;;
19151;SDS011;9708;53.114;9.388;2023-04-22T11:23:07;1.10;;;1.00;;
19151;SDS011;9708;53.114;9.388;2023-04-22T11:25:34;1.90;;;1.33;;
19151;SDS011;9708;53.114;9.388;2023-04-22T11:28:01;1.25;;;1.15;;
19151;SDS011;9708;53.114;9.388;2023-04-22T11:30:28;1.73;;;1.40;;
19151;SDS011;9708;53.114;9.388;2023-04-22T11:32:56;2.65;;;1.70;;
19151;SDS011;9708;53.114;9.388;2023-04-22T11:35:25;1.83;;;1.35;;
19151;SDS011;9708;53.114;9.388;2023-04-22T11:37:56;1.75;;;1.52;;
19151;SDS011;9708;53.114;9.388;2023-04-22T11:40:25;1.58;;;1.48;;
19151;SDS011;9708;53.114;9.388;2023-04-22T11:42:54;1.50;;;1.27;;
19151;SDS011;9708;53.114;9.388;2023-04-22T11:45:21;2.50;;;1.25;;
19151;SDS011;9708;53.114;9.388;2023-04-22T11:47:49;1.77;;;1.67;;
19151;SDS011;9708;53.114;9.388;2023-04-22T11:50:17;2.83;;;1.50;;
19151;SDS011;9708;53.114;9.388;2023-04-22T11:52:48;1.75;;;1.42;;
19151;SDS011;9708;53.114;9.388;2023-04-22T11:55:18;1.42;;;1.33;;
19151;SDS011;9708;53.114;9.388;2023-04-22T11:57:51;1.67;;;1.38;;
19151;SDS011;9708;53.114;9.388;2023-04-22T12:00:19;1.45;;;1.35;;
19151;SDS011;9708;53.114;9.388;2023-04-22T12:02:53;2.40;;;1.40;;
19151;SDS011;9708;53.114;9.388;2023-04-22T12:05:30;2.35;;;1.17;;
19151;SDS011;9708;53.114;9.388;2023-04-22T12:07:59;1.25;;;1.15;;
19151;SDS011;9708;53.114;9.388;2023-04-22T12:10:27;1.45;;;1.20;;
19151;SDS011;9708;53.114;9.388;2023-04-22T12:12:54;9.85;;;4.43;;
19151;SDS011;9708;53.114;9.388;2023-04-22T12:15:21;2.00;;;1.10;;
19151;SDS011;9708;53.114;9.388;2023-04-22T12:17:48;2.10;;;1.10;;
19151;SDS011;9708;53.114;9.388;2023-04-22T12:20:16;0.93;;;0.93;;
19151;SDS011;9708;53.114;9.388;2023-04-22T12:22:42;1.27;;;1.20;;
19151;SDS011;9708;53.114;9.388;2023-04-22T12:25:09;1.23;;;1.13;;
19151;SDS011;9708;53.114;9.388;2023-04-22T12:27:37;2.30;;;1.30;;
19151;SDS011;9708;53.114;9.388;2023-04-22T12:30:04;4.47;;;2.88;;
19151;SDS011;9708;53.114;9.388;2023-04-22T12:32:32;2.05;;;1.60;;
19151;SDS011;9708;53.114;9.388;2023-04-22T12:34:59;0.90;;;0.90;;
19151;SDS011;9708;53.114;9.388;2023-04-22T12:37:26;1.50;;;1.40;;
19151;SDS011;9708;53.114;9.388;2023-04-22T12:39:52;4.60;;;1.45;;
19151;SDS011;9708;53.114;9.388;2023-04-22T12:42:19;1.05;;;1.05;;
19151;SDS011;9708;53.114;9.388;2023-04-22T12:44:47;1.25;;;1.15;;
19151;SDS011;9708;53.114;9.388;2023-04-22T12:47:14;1.92;;;1.52;;
19151;SDS011;9708;53.114;9.388;2023-04-22T12:49:42;1.70;;;1.52;;
19151;SDS011;9708;53.114;9.388;2023-04-22T12:52:10;1.90;;;1.20;;
19151;SDS011;9708;53.114;9.388;2023-04-22T12:54:37;2.30;;;1.80;;
19151;SDS011;9708;53.114;9.388;2023-04-22T12:57:04;1.35;;;1.25;;
19151;SDS011;9708;53.114;9.388;2023-04-22T12:59:31;2.17;;;1.60;;
19151;SDS011;9708;53.114;9.388;2023-04-22T13:01:59;1.25;;;1.15;;
19151;SDS011;9708;53.114;9.388;2023-04-22T13:04:26;1.67;;;1.35;;
19151;SDS011;9708;53.114;9.388;2023-04-22T13:06:52;1.88;;;1.65;;
19151;SDS011;9708;53.114;9.388;2023-04-22T13:09:22;1.45;;;1.35;;
19151;SDS011;9708;53.114;9.388;2023-04-22T13:11:50;1.60;;;1.50;;
19151;SDS011;9708;53.114;9.388;2023-04-22T13:14:17;2.20;;;1.40;;
19151;SDS011;9708;53.114;9.388;2023-04-22T13:16:43;2.65;;;1.45;;
19151;SDS011;9708;53.114;9.388;2023-04-22T13:19:12;1.98;;;1.70;;
19151;SDS011;9708;53.114;9.388;2023-04-22T13:21:39;1.27;;;1.13;;
19151;SDS011;9708;53.114;9.388;2023-04-22T13:24:05;2.35;;;1.90;;
19151;SDS011;9708;53.114;9.388;2023-04-22T13:26:32;1.65;;;1.45;;
19151;SDS011;9708;53.114;9.388;2023-04-22T13:29:00;2.03;;;1.55;;
19151;SDS011;9708;53.114;9.388;2023-04-22T13:31:27;1.27;;;1.17;;
19151;SDS011;9708;53.114;9.388;2023-04-22T13:33:53;1.58;;;1.48;;
19151;SDS011;9708;53.114;9.388;2023-04-22T13:36:22;1.80;;;1.70;;
19151;SDS011;9708;53.114;9.388;2023-04-22T13:38:49;1.52;;;1.42;;
19151;SDS011;9708;53.114;9.388;2023-04-22T13:41:15;1.67;;;1.52;;
19151;SDS011;9708;53.114;9.388;2023-04-22T13:43:42;1.52;;;1.40;;
19151;SDS011;9708;53.114;9.388;2023-04-22T13:46:09;1.35;;;1.25;;
19151;SDS011;9708;53.114;9.388;2023-04-22T13:48:36;1.50;;;1.40;;
19151;SDS011;9708;53.114;9.388;2023-04-22T13:51:03;1.63;;;1.42;;
19151;SDS011;9708;53.114;9.388;2023-04-22T13:53:31;1.60;;;1.50;;
19151;SDS011;9708;53.114;9.388;2023-04-22T13:55:58;1.65;;;1.35;;
19151;SDS011;9708;53.114;9.388;2023-04-22T13:58:25;1.67;;;1.58;;
19151;SDS011;9708;53.114;9.388;2023-04-22T14:00:51;1.13;;;1.05;;
19151;SDS011;9708;53.114;9.388;2023-04-22T14:03:18;2.35;;;1.50;;
19151;SDS011;9708;53.114;9.388;2023-04-22T14:05:45;2.08;;;1.55;;
19151;SDS011;9708;53.114;9.388;2023-04-22T14:08:12;1.80;;;1.60;;
19151;SDS011;9708;53.114;9.388;2023-04-22T14:10:40;1.92;;;1.63;;
19151;SDS011;9708;53.114;9.388;2023-04-22T14:13:07;2.13;;;1.85;;
19151;SDS011;9708;53.114;9.388;2023-04-22T14:15:33;1.50;;;1.40;;
19151;SDS011;9708;53.114;9.388;2023-04-22T14:18:00;1.95;;;1.40;;
19151;SDS011;9708;53.114;9.388;2023-04-22T14:20:27;1.50;;;1.40;;
19151;SDS011;9708;53.114;9.388;2023-04-22T14:22:54;2.08;;;1.50;;
19151;SDS011;9708;53.114;9.388;2023-04-22T14:25:21;2.47;;;1.75;;
19151;SDS011;9708;53.114;9.388;2023-04-22T14:27:49;2.17;;;1.67;;
19151;SDS011;9708;53.114;9.388;2023-04-22T14:30:16;1.60;;;1.45;;
19151;SDS011;9708;53.114;9.388;2023-04-22T14:32:44;1.92;;;1.55;;
19151;SDS011;9708;53.114;9.388;2023-04-22T14:35:11;1.83;;;1.70;;
19151;SDS011;9708;53.114;9.388;2023-04-22T14:37:38;2.05;;;1.73;;
19151;SDS011;9708;53.114;9.388;2023-04-22T14:40:06;2.45;;;1.80;;
19151;SDS011;9708;53.114;9.388;2023-04-22T14:42:33;2.28;;;1.60;;
19151;SDS011;9708;53.114;9.388;2023-04-22T14:45:02;2.22;;;1.70;;
19151;SDS011;9708;53.114;9.388;2023-04-22T14:47:29;2.97;;;1.92;;
19151;SDS011;9708;53.114;9.388;2023-04-22T14:49:56;1.65;;;1.55;;
19151;SDS011;9708;53.114;9.388;2023-04-22T14:52:23;3.95;;;1.65;;
19151;SDS011;9708;53.114;9.388;2023-04-22T14:54:49;2.95;;;1.75;;
19151;SDS011;9708;53.114;9.388;2023-04-22T14:57:17;2.28;;;1.38;;
19151;SDS011;9708;53.114;9.388;2023-04-22T14:59:44;1.98;;;1.48;;
19151;SDS011;9708;53.114;9.388;2023-04-22T15:02:12;2.25;;;1.55;;